Time;durP1;ratioP1;P1;durP2;ratioP2;P2;SDS_P1;SDS_P2;PMS_P1;PMS_P2;Temp;Humidity;BMP_temperature;BMP_pressure;BME280_temperature;BME280_humidity;BME280_pressure;Samples;Min_cycle;Max_cycle;Signal;HPM_P1;HPM_P2
2023/07/22 00:01:09;;;;;;;8.27;5.75;;;;;;;22.31;45.59;93849.72;5096577;28;20093;-74
2023/07/22 00:03:35;;;;;;;15.07;5.75;;;;;;;22.43;45.51;93854.75;5096719;28;20044;-74
2023/07/22 00:06:08;;;;;;;11.07;5.88;;;;;;;22.49;45.70;93865.97;5098413;28;20043;-74
2023/07/22 00:08:34;;;;;;;10.27;5.70;;;;;;;22.54;45.52;93863.66;5083272;28;20103;-75
2023/07/22 00:11:00;;;;;;;10.15;6.07;;;;;;;22.56;46.55;93865.97;5099682;28;20040;-75
2023/07/22 00:13:26;;;;;;;13.00;6.32;;;;;;;22.46;47.20;93866.75;5105345;28;20111;-74
2023/07/22 00:15:55;;;;;;;13.10;5.50;;;;;;;22.45;47.47;93870.63;5084773;28;20039;-74
2023/07/22 00:18:20;;;;;;;10.93;5.57;;;;;;;22.39;48.15;93878.34;5104087;28;20048;-74
2023/07/22 00:20:46;;;;;;;8.82;4.80;;;;;;;22.30;49.03;93876.03;5104881;28;20166;-74
2023/07/22 00:23:11;;;;;;;11.15;4.97;;;;;;;22.21;48.03;93867.50;5084552;28;20066;-74
2023/07/22 00:25:37;;;;;;;10.73;5.53;;;;;;;22.26;47.12;93880.66;5102601;28;20012;-74
2023/07/22 00:28:04;;;;;;;15.00;5.90;;;;;;;22.33;47.72;93889.97;5103549;28;20050;-75
2023/07/22 00:30:29;;;;;;;10.27;6.38;;;;;;;22.28;47.93;93889.19;5103380;28;20028;-74
2023/07/22 00:32:58;;;;;;;10.15;5.78;;;;;;;22.20;48.01;93882.16;5103469;28;20020;-75
2023/07/22 00:35:23;;;;;;;10.30;5.43;;;;;;;22.22;47.94;93893.44;5086535;28;20031;-75
2023/07/22 00:37:48;;;;;;;8.77;5.32;;;;;;;22.11;48.58;93873.66;5102555;28;20035;-74
2023/07/22 00:40:14;;;;;;;11.07;6.03;;;;;;;22.06;48.85;93867.81;5101382;28;20032;-74
2023/07/22 00:42:39;;;;;;;15.20;6.28;;;;;;;22.17;48.69;93885.66;5086857;28;20548;-74
2023/07/22 00:45:07;;;;;;;10.75;6.20;;;;;;;22.15;48.37;93879.84;5103082;28;20096;-75
2023/07/22 00:47:36;;;;;;;12.32;5.65;;;;;;;22.18;48.98;93870.19;5104113;28;20064;-74
2023/07/22 00:50:06;;;;;;;10.23;5.20;;;;;;;22.02;48.95;93854.28;5085886;28;20055;-75
2023/07/22 00:52:33;;;;;;;9.32;5.75;;;;;;;22.05;49.43;93874.41;5086517;28;20032;-73
2023/07/22 00:54:59;;;;;;;13.45;5.50;;;;;;;22.16;48.72;93892.22;5100843;28;20035;-75
2023/07/22 00:57:25;;;;;;;10.90;5.65;;;;;;;22.06;50.83;93894.91;5084186;28;20051;-74
2023/07/22 00:59:51;;;;;;;5.85;4.97;;;;;;;21.92;50.49;93892.94;5100244;28;20032;-74
2023/07/22 01:02:18;;;;;;;8.65;5.57;;;;;;;21.84;50.70;93894.09;5102890;28;20020;-75
2023/07/22 01:04:43;;;;;;;9.88;5.25;;;;;;;21.81;51.21;93902.97;5101028;28;20043;-74
2023/07/22 01:07:10;;;;;;;10.55;5.43;;;;;;;21.72;50.95;93873.56;5101781;28;20032;-75
2023/07/22 01:09:39;;;;;;;9.30;5.65;;;;;;;21.78;50.37;93879.38;5099394;28;20039;-74
2023/07/22 01:12:06;;;;;;;9.95;5.72;;;;;;;21.83;50.13;93882.50;5103988;28;20043;-74
2023/07/22 01:14:33;;;;;;;8.93;5.78;;;;;;;21.77;50.18;93867.00;5100702;28;20027;-74
2023/07/22 01:17:01;;;;;;;11.10;5.32;;;;;;;21.77;50.29;93865.06;5101998;28;20036;-75
2023/07/22 01:19:28;;;;;;;7.80;5.70;;;;;;;21.73;50.96;93858.88;5101765;28;20043;-74
2023/07/22 01:21:55;;;;;;;8.68;5.35;;;;;;;21.80;50.57;93863.53;5084055;28;20740;-75
2023/07/22 01:24:21;;;;;;;9.02;5.38;;;;;;;21.72;50.63;93862.72;5104282;28;20032;-75
2023/07/22 01:26:47;;;;;;;9.35;5.07;;;;;;;21.68;51.17;93863.88;5103321;28;20031;-74
2023/07/22 01:29:13;;;;;;;10.23;5.35;;;;;;;21.64;51.72;93866.56;5102089;28;20055;-75
2023/07/22 01:31:39;;;;;;;9.25;5.57;;;;;;;21.64;51.22;93850.34;5101719;28;20036;-74
2023/07/22 01:34:04;;;;;;;10.95;5.13;;;;;;;21.66;50.97;93855.34;5102859;28;20032;-75
2023/07/22 01:36:30;;;;;;;14.88;6.13;;;;;;;21.68;51.15;93853.03;5098890;28;20124;-74
2023/07/22 01:38:55;;;;;;;12.18;5.40;;;;;;;21.65;51.41;93856.53;5102468;28;20027;-75
2023/07/22 01:41:21;;;;;;;8.63;5.55;;;;;;;21.65;51.13;93851.13;5097233;28;20028;-74
2023/07/22 01:43:46;;;;;;;14.25;6.65;;;;;;;21.25;51.61;93796.06;5097530;28;20044;-74
2023/07/22 01:46:12;;;;;;;8.82;5.78;;;;;;;21.54;52.03;93852.97;5097682;28;20492;-75
2023/07/22 01:48:37;;;;;;;9.02;5.05;;;;;;;21.42;52.75;93841.31;5096941;28;20046;-75
2023/07/22 01:51:03;;;;;;;12.50;6.00;;;;;;;21.35;53.08;93846.72;5096901;28;20035;-75
2023/07/22 01:53:29;;;;;;;9.02;6.05;;;;;;;21.32;53.54;93855.56;5076453;28;20497;-74
2023/07/22 01:55:54;;;;;;;9.95;5.60;;;;;;;21.25;53.43;93850.16;5097625;28;20037;-74
2023/07/22 01:58:20;;;;;;;16.27;6.47;;;;;;;21.20;53.63;93850.50;5096371;28;20099;-74
2023/07/22 02:00:50;;;;;;;11.75;5.40;;;;;;;21.19;53.22;93840.84;5079289;28;20317;-74
2023/07/22 02:03:15;;;;;;;11.05;5.95;;;;;;;21.23;52.86;93841.63;5097693;28;20032;-74
2023/07/22 02:05:41;;;;;;;11.65;6.10;;;;;;;21.32;52.72;93842.06;5098925;28;20081;-75
2023/07/22 02:08:06;;;;;;;11.85;5.95;;;;;;;21.34;53.34;93841.69;5100578;28;20829;-75
2023/07/22 02:10:31;;;;;;;11.48;5.47;;;;;;;21.31;53.61;93837.81;5083161;28;20023;-74
2023/07/22 02:12:57;;;;;;;8.82;5.80;;;;;;;21.22;53.36;93828.47;5101718;28;20043;-75
2023/07/22 02:15:24;;;;;;;10.45;5.30;;;;;;;21.25;53.66;93847.44;5098702;28;20176;-74
2023/07/22 02:17:50;;;;;;;7.95;5.00;;;;;;;21.19;54.01;93848.19;5081198;28;20081;-74
2023/07/22 02:20:15;;;;;;;10.43;5.30;;;;;;;21.16;54.12;93857.84;5079887;28;20032;-75
2023/07/22 02:22:41;;;;;;;12.50;7.10;;;;;;;21.04;54.17;93839.22;5093597;28;20039;-74
2023/07/22 02:25:07;;;;;;;10.15;5.82;;;;;;;21.08;54.57;93855.44;5096398;28;20036;-75
2023/07/22 02:27:32;;;;;;;16.10;6.80;;;;;;;20.98;54.22;93840.72;5095353;28;20107;-75
2023/07/22 02:29:58;;;;;;;8.30;5.55;;;;;;;21.06;54.31;93841.56;5096760;28;20664;-74
2023/07/22 02:32:23;;;;;;;9.70;5.40;;;;;;;21.03;54.61;93846.56;5076819;28;20120;-75
2023/07/22 02:34:48;;;;;;;9.20;5.95;;;;;;;20.95;55.45;93846.91;5095186;28;20103;-73
2023/07/22 02:37:14;;;;;;;8.93;5.68;;;;;;;20.83;55.62;93845.25;5095683;28;20123;-74
2023/07/22 02:39:39;;;;;;;14.27;5.72;;;;;;;20.86;55.58;93849.91;5081141;28;20315;-74
2023/07/22 02:42:05;;;;;;;11.35;6.45;;;;;;;20.88;55.74;93852.25;5096622;28;20036;-74
2023/07/22 02:44:30;;;;;;;10.30;5.35;;;;;;;20.83;56.02;93855.28;5097846;28;20384;-75
2023/07/22 02:46:56;;;;;;;13.45;6.03;;;;;;;20.80;55.68;93846.00;5095344;28;20400;-74
2023/07/22 02:49:21;;;;;;;7.45;5.35;;;;;;;20.82;55.81;93857.22;5093896;28;20059;-74
2023/07/22 02:51:46;;;;;;;10.77;5.55;;;;;;;20.64;56.38;93847.41;5093527;28;20044;-75
2023/07/22 02:54:13;;;;;;;9.30;6.35;;;;;;;20.65;56.31;93849.75;5095460;28;20060;-75
2023/07/22 02:56:39;;;;;;;10.20;5.95;;;;;;;20.65;56.27;93846.28;5095661;28;20028;-74
2023/07/22 02:59:04;;;;;;;9.50;6.13;;;;;;;20.64;56.42;93847.41;5094623;28;20047;-74
2023/07/22 03:01:30;;;;;;;12.90;6.60;;;;;;;20.65;56.47;93859.78;5078942;28;20043;-75
2023/07/22 03:03:56;;;;;;;14.05;6.82;;;;;;;20.67;56.47;93854.78;5078173;28;20048;-74
2023/07/22 03:06:22;;;;;;;17.27;6.15;;;;;;;20.51;56.61;93850.44;5082893;28;20077;-74
2023/07/22 03:08:48;;;;;;;11.15;6.10;;;;;;;20.57;56.42;93848.16;5096030;28;20034;-75
2023/07/22 03:11:13;;;;;;;11.65;5.80;;;;;;;20.58;57.09;93863.97;5079523;28;20023;-74
2023/07/22 03:13:39;;;;;;;6.70;5.35;;;;;;;20.49;56.77;93841.13;5084773;28;20064;-74
2023/07/22 03:16:04;;;;;;;12.75;6.10;;;;;;;20.47;57.05;93848.88;5098659;28;20037;-75
2023/07/22 03:18:30;;;;;;;10.43;6.22;;;;;;;20.49;57.19;93850.03;5100202;28;20036;-74
2023/07/22 03:20:57;;;;;;;9.43;6.55;;;;;;;20.51;57.06;93861.25;5097909;28;20035;-75
2023/07/22 03:23:22;;;;;;;7.10;5.53;;;;;;;20.43;57.76;93843.44;5099632;28;20131;-75
2023/07/22 03:25:48;;;;;;;9.57;6.07;;;;;;;20.43;57.70;93861.56;5099484;28;20056;-75
2023/07/22 03:28:14;;;;;;;11.02;5.97;;;;;;;20.44;57.31;93855.78;5097489;28;20047;-74
2023/07/22 03:30:39;;;;;;;11.48;6.28;;;;;;;20.41;57.40;93859.22;5098553;28;20035;-74
2023/07/22 03:33:05;;;;;;;11.95;6.60;;;;;;;20.47;57.52;93871.25;5100550;28;20039;-75
2023/07/22 03:35:32;;;;;;;9.38;6.40;;;;;;;20.36;57.79;93867.69;5098317;28;20027;-75
2023/07/22 03:37:58;;;;;;;9.27;6.13;;;;;;;20.48;58.94;93888.25;5080704;28;20032;-74
2023/07/22 03:40:28;;;;;;;14.02;6.28;;;;;;;20.41;59.46;93885.47;5100792;28;20085;-74
2023/07/22 03:42:55;;;;;;;12.93;6.53;;;;;;;20.46;58.02;93891.31;5082183;28;20099;-74
2023/07/22 03:45:21;;;;;;;10.43;5.47;;;;;;;20.48;58.76;93897.09;5096679;28;20071;-76
2023/07/22 03:47:57;;;;;;;13.50;6.10;;;;;;;20.53;58.63;93894.06;5089773;28;20067;-76
2023/07/22 03:50:22;;;;;;;13.02;6.70;;;;;;;20.61;58.41;93894.91;5092958;28;20164;-75
2023/07/22 03:52:48;;;;;;;11.82;6.75;;;;;;;20.57;58.56;93884.06;5095369;28;20028;-76
2023/07/22 03:55:13;;;;;;;9.88;5.95;;;;;;;20.73;58.84;93899.25;5097459;28;20384;-75
2023/07/22 03:57:39;;;;;;;7.90;5.45;;;;;;;20.76;58.55;93899.25;5081558;28;20511;-74
2023/07/22 04:00:09;;;;;;;11.15;5.90;;;;;;;20.76;59.07;93910.06;5097010;28;20043;-74
2023/07/22 04:02:34;;;;;;;9.70;7.07;;;;;;;20.71;58.53;93896.91;5098956;28;20028;-75
2023/07/22 04:05:00;;;;;;;10.40;6.32;;;;;;;20.76;59.33;93899.25;5098050;28;20048;-74
2023/07/22 04:07:25;;;;;;;10.85;7.15;;;;;;;20.88;57.96;93917.91;5098204;28;20084;-74
2023/07/22 04:09:51;;;;;;;12.45;6.82;;;;;;;20.89;58.63;93905.16;5099714;28;20046;-73
2023/07/22 04:12:16;;;;;;;8.32;6.53;;;;;;;20.97;58.15;93906.78;5095084;28;20032;-74
2023/07/22 04:14:42;;;;;;;11.23;6.05;;;;;;;20.93;57.77;93898.63;5098844;28;20054;-75
2023/07/22 04:17:08;;;;;;;11.85;6.15;;;;;;;21.08;56.63;93923.84;5095138;28;20526;-74
2023/07/22 04:19:33;;;;;;;8.65;5.80;;;;;;;21.18;55.73;93915.00;5098652;28;20036;-75
2023/07/22 04:22:03;;;;;;;14.45;6.88;;;;;;;21.12;54.87;93889.47;5098705;28;20085;-74
2023/07/22 04:24:30;;;;;;;12.95;6.68;;;;;;;21.20;54.95;93912.72;5098052;28;20092;-74
2023/07/22 04:26:56;;;;;;;9.35;6.47;;;;;;;21.27;56.40;93901.94;5098217;28;20097;-75
2023/07/22 04:29:21;;;;;;;9.60;6.93;;;;;;;21.42;54.55;93917.06;5100170;28;20024;-74
2023/07/22 04:31:46;;;;;;;9.63;6.85;;;;;;;21.40;55.11;93908.59;5097607;28;20051;-75
2023/07/22 04:34:12;;;;;;;10.20;6.68;;;;;;;21.41;54.53;93912.81;5097066;28;20039;-75
2023/07/22 04:36:38;;;;;;;9.23;5.60;;;;;;;21.54;54.26;93926.03;5099016;28;20090;-75
2023/07/22 04:39:07;;;;;;;12.27;7.25;;;;;;;21.56;53.92;93926.47;5081343;28;20016;-74
2023/07/22 04:41:33;;;;;;;13.20;6.78;;;;;;;21.60;54.04;93929.97;5098008;28;20032;-74
2023/07/22 04:43:58;;;;;;;13.65;8.10;;;;;;;21.66;54.48;93918.38;5095394;28;20067;-73
2023/07/22 04:46:25;;;;;;;10.20;7.03;;;;;;;21.50;54.58;93890.06;5082374;28;20115;-74
2023/07/22 04:48:53;;;;;;;15.30;6.95;;;;;;;21.76;54.02;93923.06;5098719;28;20039;-74
2023/07/22 04:51:18;;;;;;;25.77;7.53;;;;;;;21.77;53.76;93911.06;5098804;28;20055;-75
2023/07/22 04:53:44;;;;;;;19.13;7.63;;;;;;;21.90;53.77;93935.91;5102188;28;20047;-74
2023/07/22 04:56:09;;;;;;;20.67;7.18;;;;;;;21.97;53.85;93933.19;5103001;28;20036;-76
2023/07/22 04:58:34;;;;;;;14.13;7.18;;;;;;;22.04;53.50;93927.81;5101843;28;20043;-73
2023/07/22 05:01:00;;;;;;;12.82;7.05;;;;;;;22.10;53.33;93937.09;5097366;28;20036;-75
2023/07/22 05:03:26;;;;;;;11.07;6.75;;;;;;;21.93;52.32;93897.22;5085379;28;20036;-74
2023/07/22 05:05:51;;;;;;;10.55;6.30;;;;;;;22.13;52.74;93914.69;5102180;28;20024;-74
2023/07/22 05:08:17;;;;;;;10.65;6.38;;;;;;;22.29;53.31;93931.38;5103207;28;20024;-75
2023/07/22 05:10:42;;;;;;;13.95;6.00;;;;;;;22.34;52.36;93926.75;5101590;28;20115;-74
2023/07/22 05:13:07;;;;;;;12.18;6.57;;;;;;;22.41;51.96;93940.28;5102760;28;20038;-75
2023/07/22 05:15:33;;;;;;;10.80;6.25;;;;;;;22.54;52.09;93949.59;5103102;28;20043;-75
2023/07/22 05:17:58;;;;;;;8.65;5.95;;;;;;;22.50;51.62;93943.41;5101155;28;20058;-74
2023/07/22 05:20:24;;;;;;;18.58;6.97;;;;;;;22.57;51.70;93949.63;5104685;28;20012;-74
2023/07/22 05:22:49;;;;;;;16.20;8.07;;;;;;;22.60;51.39;93948.06;5101593;28;20078;-74
2023/07/22 05:25:15;;;;;;;8.23;5.97;;;;;;;22.70;51.19;93950.00;5101781;28;20091;-75
2023/07/22 05:27:40;;;;;;;10.32;6.13;;;;;;;22.65;50.93;93940.31;5088484;28;20499;-75
2023/07/22 05:30:07;;;;;;;13.00;6.30;;;;;;;22.72;51.93;93926.00;5085458;28;20095;-74
2023/07/22 05:32:32;;;;;;;10.63;5.88;;;;;;;22.95;51.51;93936.47;5104151;28;20031;-75
2023/07/22 05:34:58;;;;;;;14.07;7.38;;;;;;;23.05;51.57;93925.63;5081982;28;20036;-74
2023/07/22 05:37:24;;;;;;;13.18;7.30;;;;;;;23.03;50.23;93922.53;5088505;28;20051;-74
2023/07/22 05:39:50;;;;;;;13.35;6.43;;;;;;;23.10;49.82;93933.38;5102991;28;20036;-75
2023/07/22 05:42:16;;;;;;;10.73;7.20;;;;;;;23.14;49.78;93947.72;5084592;28;20063;-74
2023/07/22 05:44:42;;;;;;;9.70;6.40;;;;;;;23.10;50.30;93943.44;5085622;28;20036;-74
2023/07/22 05:47:07;;;;;;;8.90;6.57;;;;;;;23.10;50.88;93944.22;5088774;28;20028;-74
2023/07/22 05:49:32;;;;;;;16.02;6.95;;;;;;;23.20;51.26;93950.03;5102997;28;20511;-74
2023/07/22 05:51:58;;;;;;;19.88;7.70;;;;;;;23.21;50.70;93940.72;5104340;28;20064;-74
2023/07/22 05:54:24;;;;;;;14.45;6.57;;;;;;;23.27;49.91;93947.31;5099104;28;20043;-75
2023/07/22 05:56:49;;;;;;;9.02;6.80;;;;;;;23.33;50.20;93949.22;5095708;28;20053;-75
2023/07/22 05:59:14;;;;;;;11.88;6.88;;;;;;;23.28;49.43;93929.84;5097550;28;20044;-75
2023/07/22 06:01:40;;;;;;;12.32;6.50;;;;;;;23.29;49.36;93939.53;5099509;28;20040;-74
2023/07/22 06:04:06;;;;;;;12.02;7.30;;;;;;;23.37;49.76;93951.94;5077902;28;20040;-74
2023/07/22 06:06:31;;;;;;;14.10;6.63;;;;;;;23.41;49.63;93960.84;5098090;28;20055;-75
2023/07/22 06:08:57;;;;;;;9.07;6.60;;;;;;;23.53;52.30;93955.03;5095586;28;22853;-75
2023/07/22 06:11:22;;;;;;;16.42;6.88;;;;;;;23.46;50.06;93955.03;5080745;28;20089;-76
2023/07/22 06:13:48;;;;;;;16.65;7.53;;;;;;;23.55;50.09;93958.13;5098290;28;20058;-76
2023/07/22 06:16:13;;;;;;;9.95;6.97;;;;;;;23.51;50.10;93976.38;5097209;28;20062;-75
2023/07/22 06:18:39;;;;;;;9.38;6.80;;;;;;;23.59;49.32;93983.34;5097012;28;20040;-75
2023/07/22 06:21:05;;;;;;;13.85;7.45;;;;;;;23.57;49.92;93982.94;5096399;28;20039;-75
2023/07/22 06:23:30;;;;;;;15.32;8.07;;;;;;;23.68;50.84;93993.78;5096865;28;20015;-75
2023/07/22 06:25:56;;;;;;;13.00;8.10;;;;;;;23.67;49.91;93982.13;5084420;28;20052;-75
2023/07/22 06:28:21;;;;;;;13.38;8.25;;;;;;;23.80;49.85;93996.09;5083566;28;20414;-75
2023/07/22 06:30:47;;;;;;;15.30;8.07;;;;;;;23.83;49.74;93992.56;5096944;28;20603;-75
2023/07/22 06:33:12;;;;;;;19.48;7.82;;;;;;;23.84;50.01;93986.75;5096592;28;20056;-74
2023/07/22 06:35:37;;;;;;;15.40;8.73;;;;;;;23.87;50.09;93996.03;5096680;28;20028;-75
2023/07/22 06:38:03;;;;;;;10.95;7.57;;;;;;;23.44;50.96;93913.94;5081385;28;20040;-74
2023/07/22 06:40:28;;;;;;;12.23;7.20;;;;;;;24.06;50.02;93997.53;5097867;28;20044;-74
2023/07/22 06:42:54;;;;;;;15.30;8.63;;;;;;;24.21;51.16;94004.50;5098483;28;20044;-75
2023/07/22 06:45:19;;;;;;;16.52;8.85;;;;;;;24.25;49.64;93995.16;5096418;28;20040;-76
2023/07/22 06:47:46;;;;;;;10.98;7.20;;;;;;;24.40;48.80;94001.28;5098879;28;20460;-74
2023/07/22 06:50:11;;;;;;;12.07;7.78;;;;;;;24.39;50.13;93988.88;5084694;28;20032;-74
2023/07/22 06:52:37;;;;;;;12.27;8.00;;;;;;;24.57;48.55;94003.16;5101235;28;20066;-74
2023/07/22 06:55:02;;;;;;;13.98;7.68;;;;;;;24.50;49.03;93981.44;5101322;28;20114;-74
2023/07/22 06:57:29;;;;;;;12.13;7.40;;;;;;;24.64;49.04;93991.44;5102364;28;20058;-74
2023/07/22 06:59:54;;;;;;;12.20;7.55;;;;;;;24.70;48.79;93993.34;5101607;28;20016;-75
2023/07/22 07:02:21;;;;;;;14.20;7.85;;;;;;;24.72;48.69;93977.44;5082883;28;20024;-74
2023/07/22 07:04:46;;;;;;;12.88;8.30;;;;;;;24.84;48.07;93976.97;5101805;28;20043;-75
2023/07/22 07:07:13;;;;;;;13.75;7.40;;;;;;;24.90;48.87;93980.03;5101531;28;20056;-74
2023/07/22 07:09:38;;;;;;;17.02;8.50;;;;;;;24.98;47.57;93969.88;5103699;28;20047;-74
2023/07/22 07:12:04;;;;;;;14.75;8.40;;;;;;;25.08;48.16;93982.59;5102090;28;20027;-74
2023/07/22 07:14:33;;;;;;;18.25;8.75;;;;;;;25.26;47.70;93985.97;5103636;28;20028;-74
2023/07/22 07:16:59;;;;;;;13.98;8.73;;;;;;;25.36;48.46;93985.13;5103045;28;20043;-75
2023/07/22 07:19:24;;;;;;;15.68;8.75;;;;;;;25.29;48.26;93966.09;5101562;28;20036;-74
2023/07/22 07:21:49;;;;;;;10.73;8.60;;;;;;;25.44;48.38;93972.22;5100927;28;20040;-75
2023/07/22 07:24:15;;;;;;;14.82;8.15;;;;;;;25.51;46.55;93985.78;5101682;28;20087;-75
2023/07/22 07:26:40;;;;;;;11.57;8.15;;;;;;;25.55;45.83;93976.41;5087146;28;20055;-74
2023/07/22 07:29:06;;;;;;;14.35;8.93;;;;;;;25.65;46.39;93972.78;5100224;28;20062;-75
2023/07/22 07:31:31;;;;;;;15.32;8.70;;;;;;;25.73;45.90;93959.09;5102782;28;20100;-74
2023/07/22 07:33:57;;;;;;;10.60;7.85;;;;;;;25.68;46.62;93942.00;5104469;28;20040;-75
2023/07/22 07:36:25;;;;;;;13.10;9.35;;;;;;;25.80;46.47;93959.00;5106241;28;20043;-76
2023/07/22 07:38:50;;;;;;;14.07;8.93;;;;;;;25.76;47.25;93955.56;5086113;28;20028;-75
2023/07/22 07:41:15;;;;;;;12.88;8.80;;;;;;;25.89;46.54;93956.59;5106405;28;20019;-75
2023/07/22 07:43:41;;;;;;;16.67;9.30;;;;;;;26.08;46.79;93964.94;5107165;28;20035;-75
2023/07/22 07:46:17;;;;;;;16.35;8.43;;;;;;;26.13;46.04;93961.75;5104105;28;20035;-75
2023/07/22 07:48:44;;;;;;;13.75;8.27;;;;;;;26.12;46.00;93960.22;5106241;28;20112;-75
2023/07/22 07:51:11;;;;;;;17.33;9.18;;;;;;;26.12;45.61;93959.44;5103944;28;20076;-75
2023/07/22 07:53:37;;;;;;;17.05;10.98;;;;;;;26.07;44.32;93957.94;5104262;28;20036;-75
2023/07/22 07:56:02;;;;;;;16.20;9.38;;;;;;;25.98;46.12;93948.72;5103689;28;20042;-74
2023/07/22 07:58:28;;;;;;;14.68;8.85;;;;;;;26.04;45.89;93963.44;5105711;28;20040;-76
2023/07/22 08:00:53;;;;;;;17.40;10.50;;;;;;;25.96;45.95;93965.44;5104167;28;20028;-76
2023/07/22 08:03:19;;;;;;;13.60;9.20;;;;;;;26.01;46.39;93942.44;5104504;28;20035;-76
2023/07/22 08:05:44;;;;;;;12.65;10.25;;;;;;;26.08;45.89;93961.44;5103659;28;20084;-75
2023/07/22 08:08:10;;;;;;;18.25;9.13;;;;;;;26.05;45.69;93943.97;5088094;28;20074;-74
2023/07/22 08:10:35;;;;;;;21.33;9.75;;;;;;;26.26;46.29;93961.19;5104374;28;20043;-75
2023/07/22 08:13:01;;;;;;;15.43;9.43;;;;;;;26.27;46.44;93947.16;5107698;28;20305;-75
2023/07/22 08:15:27;;;;;;;15.00;11.23;;;;;;;26.39;46.25;93957.53;5088016;28;20036;-74
2023/07/22 08:17:53;;;;;;;15.40;9.77;;;;;;;26.41;46.83;93941.50;5104967;28;20042;-75
2023/07/22 08:20:19;;;;;;;15.57;9.15;;;;;;;26.62;46.17;93961.53;5107049;28;20052;-75
2023/07/22 08:22:44;;;;;;;13.43;8.95;;;;;;;26.54;44.08;93947.22;5105449;28;20032;-75
2023/07/22 08:25:09;;;;;;;12.98;8.95;;;;;;;26.57;44.44;93953.81;5101646;28;20056;-76
2023/07/22 08:27:35;;;;;;;16.50;10.15;;;;;;;26.54;45.09;93941.78;5105047;28;20042;-75
2023/07/22 08:30:00;;;;;;;18.10;9.93;;;;;;;26.65;44.41;93941.59;5106654;28;20036;-75
2023/07/22 08:32:26;;;;;;;15.02;9.48;;;;;;;26.74;45.19;93944.59;5105603;28;20024;-75
2023/07/22 08:34:51;;;;;;;18.50;9.52;;;;;;;26.66;44.09;93940.41;5105826;28;20047;-75
2023/07/22 08:37:16;;;;;;;13.75;9.35;;;;;;;26.68;43.66;93933.38;5105530;28;20111;-76
2023/07/22 08:39:42;;;;;;;13.07;9.90;;;;;;;26.74;44.78;93934.44;5104266;28;20054;-75
2023/07/22 08:42:08;;;;;;;20.05;10.40;;;;;;;26.75;44.58;93935.97;5104618;28;20028;-76
2023/07/22 08:44:37;;;;;;;17.73;10.15;;;;;;;26.83;46.33;93931.19;5083719;28;20028;-75
2023/07/22 08:47:04;;;;;;;16.45;8.93;;;;;;;26.85;44.93;93918.69;5088779;28;20024;-75
2023/07/22 08:49:30;;;;;;;15.98;9.60;;;;;;;26.98;44.92;93919.63;5104938;28;20067;-75
2023/07/22 08:51:57;;;;;;;16.70;9.68;;;;;;;26.99;44.39;93906.75;5104673;28;20031;-74
2023/07/22 08:54:23;;;;;;;15.02;8.43;;;;;;;27.03;44.31;93904.78;5098780;28;20040;-76
2023/07/22 08:56:50;;;;;;;16.15;9.98;;;;;;;26.92;43.55;93895.97;5098704;28;20020;-74
2023/07/22 08:59:17;;;;;;;19.48;10.50;;;;;;;26.98;43.93;93894.31;5098402;28;20075;-75
2023/07/22 09:01:44;;;;;;;16.08;10.35;;;;;;;27.00;44.06;93894.66;5097521;28;20050;-74
2023/07/22 09:04:09;;;;;;;15.63;9.15;;;;;;;27.02;43.89;93888.81;5099023;28;20028;-74
2023/07/22 09:06:35;;;;;;;21.15;11.40;;;;;;;27.19;43.75;93899.41;5099481;28;20050;-73
2023/07/22 09:09:06;;;;;;;25.27;10.38;;;;;;;27.19;43.61;93876.81;5098540;28;20017;-74
2023/07/22 09:11:32;;;;;;;16.20;9.98;;;;;;;27.32;42.52;93892.19;5101206;28;20061;-74
2023/07/22 09:13:58;;;;;;;18.88;9.38;;;;;;;27.24;42.22;93898.94;5098223;28;20037;-76
2023/07/22 09:16:24;;;;;;;20.92;9.85;;;;;;;27.25;42.31;93895.03;5082469;28;20553;-74
2023/07/22 09:18:50;;;;;;;18.15;9.38;;;;;;;27.44;43.44;93898.19;5099148;28;20059;-73
2023/07/22 09:21:15;;;;;;;15.93;9.05;;;;;;;27.48;41.78;93887.97;5095787;28;20043;-74
2023/07/22 09:23:40;;;;;;;21.13;10.07;;;;;;;27.55;42.67;93890.56;5098306;28;20107;-75
2023/07/22 09:26:14;;;;;;;13.40;8.88;;;;;;;27.65;44.11;93897.84;5097988;28;20024;-75
2023/07/22 09:28:54;;;;;;;15.20;7.65;;;;;;;27.68;42.99;93892.28;5094879;28;20074;-74
2023/07/22 09:31:23;;;;;;;16.48;9.93;;;;;;;27.57;43.03;93869.13;5082772;28;20070;-75
2023/07/22 09:33:50;;;;;;;18.60;9.40;;;;;;;27.55;43.48;93887.84;5084806;28;20032;-75
2023/07/22 09:36:16;;;;;;;14.25;10.02;;;;;;;27.50;43.06;93888.34;5098012;28;20036;-75
2023/07/22 09:38:41;;;;;;;12.63;8.80;;;;;;;27.59;42.97;93886.63;5100731;28;20019;-75
2023/07/22 09:41:08;;;;;;;18.33;9.98;;;;;;;27.75;42.85;93894.13;5099585;28;20339;-75
2023/07/22 09:43:38;;;;;;;13.95;9.15;;;;;;;27.78;42.33;93879.59;5086830;28;20039;-75
2023/07/22 09:46:11;;;;;;;16.67;9.80;;;;;;;27.94;42.63;93887.88;5098298;28;20043;-73
2023/07/22 09:48:41;;;;;;;13.68;8.30;;;;;;;28.00;43.51;93879.94;5081685;28;20052;-74
2023/07/22 09:51:11;;;;;;;13.88;9.10;;;;;;;28.01;41.48;93871.31;5081011;28;20046;-74
2023/07/22 09:53:37;;;;;;;11.73;8.82;;;;;;;28.07;41.56;93875.09;5070622;28;20077;-74
2023/07/22 09:56:06;;;;;;;17.25;8.77;;;;;;;28.12;41.91;93863.69;5098397;28;20131;-75
2023/07/22 09:58:33;;;;;;;21.63;8.43;;;;;;;28.15;40.36;93864.81;5098983;28;20135;-75
2023/07/22 10:01:00;;;;;;;17.15;8.60;;;;;;;28.01;39.39;93854.16;5100412;28;20036;-74
2023/07/22 10:03:29;;;;;;;15.07;8.48;;;;;;;28.14;40.20;93858.56;5099839;28;20036;-74
2023/07/22 10:05:55;;;;;;;15.00;9.00;;;;;;;28.24;40.53;93860.31;5098153;28;20087;-75
2023/07/22 10:08:21;;;;;;;17.65;8.85;;;;;;;28.35;41.60;93862.03;5101234;28;20024;-74
2023/07/22 10:10:51;;;;;;;13.05;8.90;;;;;;;28.40;41.12;93859.53;5095417;28;20036;-75
2023/07/22 10:13:16;;;;;;;17.65;9.95;;;;;;;28.46;40.96;93854.31;5099357;28;20081;-75
2023/07/22 10:15:42;;;;;;;21.00;9.60;;;;;;;28.32;39.72;93851.91;5080790;28;20040;-74
2023/07/22 10:18:10;;;;;;;18.15;8.35;;;;;;;28.50;41.45;93868.72;5096814;28;20551;-74
2023/07/22 10:20:36;;;;;;;17.85;8.20;;;;;;;28.55;40.71;93860.75;5099376;28;20046;-74
2023/07/22 10:23:03;;;;;;;16.00;8.48;;;;;;;28.57;39.40;93849.38;5098256;28;20036;-74
2023/07/22 10:25:30;;;;;;;15.32;7.50;;;;;;;28.57;38.07;93847.41;5098702;28;20032;-74
2023/07/22 10:27:55;;;;;;;17.92;7.03;;;;;;;28.63;37.68;93859.44;5097589;28;20109;-75
2023/07/22 10:30:21;;;;;;;20.73;6.32;;;;;;;28.90;36.22;93853.69;5097869;28;20315;-75
2023/07/22 10:32:52;;;;;;;21.08;7.07;;;;;;;28.88;36.22;93839.66;5100136;28;20036;-75
2023/07/22 10:35:24;;;;;;;24.35;6.72;;;;;;;28.90;36.00;93842.72;5081644;28;20061;-75
2023/07/22 10:37:52;;;;;;;16.25;6.35;;;;;;;29.01;34.45;93843.22;5098804;28;20094;-75
2023/07/22 10:40:24;;;;;;;18.10;6.88;;;;;;;29.11;34.92;93846.91;5097407;28;20032;-75
2023/07/22 10:42:52;;;;;;;21.55;6.28;;;;;;;29.16;33.87;93827.22;5100213;28;20036;-74
2023/07/22 10:45:32;;;;;;;21.17;5.63;;;;;;;29.12;34.17;93842.97;5095534;28;20039;-74
2023/07/22 10:48:12;;;;;;;20.95;6.60;;;;;;;29.17;33.54;93828.00;5071153;28;20534;-73
2023/07/22 10:50:48;;;;;;;19.05;6.07;;;;;;;29.25;34.49;93832.09;5099357;28;20111;-75
2023/07/22 10:53:27;;;;;;;33.42;7.35;;;;;;;29.25;33.41;93824.63;5081449;28;21002;-74
2023/07/22 10:56:16;;;;;;;22.48;5.97;;;;;;;29.44;33.75;93831.94;5100853;28;20110;-75
2023/07/22 10:58:45;;;;;;;19.65;5.90;;;;;;;29.51;33.46;93836.47;5099740;28;20206;-74
2023/07/22 11:01:24;;;;;;;20.25;5.75;;;;;;;29.57;33.02;93834.72;5097747;28;20123;-74
2023/07/22 11:04:32;;;;;;;20.33;5.65;;;;;;;29.64;33.02;93823.56;5079874;28;20099;-75
2023/07/22 11:07:05;;;;;;;23.85;7.32;;;;;;;29.66;32.53;93828.63;5092476;28;20045;-75
2023/07/22 11:09:33;;;;;;;26.63;6.45;;;;;;;29.82;33.55;93829.31;5098651;28;20032;-75
2023/07/22 11:11:58;;;;;;;23.63;5.60;;;;;;;29.79;32.50;93827.47;5099848;28;20047;-75
2023/07/22 11:14:46;;;;;;;14.77;5.53;;;;;;;29.70;32.59;93788.97;5096845;28;20020;-74
2023/07/22 11:17:12;;;;;;;21.92;5.95;;;;;;;29.90;33.02;93825.19;5099894;28;20292;-75
2023/07/22 11:19:38;;;;;;;23.60;5.82;;;;;;;29.88;33.66;93821.31;5097193;28;20043;-76
2023/07/22 11:22:05;;;;;;;18.13;5.57;;;;;;;30.02;33.46;93826.38;5099301;28;20040;-74
2023/07/22 11:24:35;;;;;;;22.38;5.68;;;;;;;30.17;33.21;93810.28;5097380;28;20137;-75